createdAt,value
2023-01-08T00:00:44.016Z,2.90
2023-01-08T00:03:11.001Z,3.08
2023-01-08T00:05:38.101Z,3.17
2023-01-08T00:08:05.132Z,3.30
2023-01-08T00:10:33.038Z,2.77
2023-01-08T00:12:59.770Z,3.28
2023-01-08T00:15:26.439Z,3.30
2023-01-08T00:17:52.959Z,3.30
2023-01-08T00:20:19.523Z,3.17
2023-01-08T00:22:48.486Z,3.07
2023-01-08T00:25:15.460Z,3.38
2023-01-08T00:27:43.489Z,3.33
2023-01-08T00:30:11.479Z,3.42
2023-01-08T00:32:38.137Z,3.47
2023-01-08T00:35:05.782Z,3.00
2023-01-08T00:37:33.124Z,3.35
2023-01-08T00:39:59.705Z,3.30
2023-01-08T00:42:26.285Z,3.10
2023-01-08T00:44:54.159Z,3.05
2023-01-08T00:47:20.746Z,3.10
2023-01-08T00:49:47.331Z,3.13
2023-01-08T00:52:14.068Z,3.00
2023-01-08T00:54:40.596Z,3.03
2023-01-08T00:57:07.121Z,3.28
2023-01-08T00:59:33.781Z,2.90
2023-01-08T01:02:01.831Z,2.88
2023-01-08T01:04:28.832Z,3.10
2023-01-08T01:06:55.398Z,3.20
2023-01-08T01:09:22.151Z,3.40
2023-01-08T01:11:48.741Z,3.50
2023-01-08T01:14:15.740Z,2.92
2023-01-08T01:16:42.325Z,3.40
2023-01-08T01:19:14.007Z,2.90
2023-01-08T01:21:40.608Z,3.15
2023-01-08T01:24:07.680Z,2.80
2023-01-08T01:26:34.762Z,3.10
2023-01-08T01:29:01.788Z,3.40
2023-01-08T01:31:30.531Z,2.95
2023-01-08T01:33:57.656Z,3.38
2023-01-08T01:36:26.537Z,3.47
2023-01-08T01:38:55.036Z,3.40
2023-01-08T01:41:25.740Z,3.60
2023-01-08T01:43:53.765Z,3.13
2023-01-08T01:46:33.834Z,3.15
2023-01-08T01:49:05.763Z,3.10
2023-01-08T01:51:34.858Z,3.30
2023-01-08T01:54:03.592Z,3.38
2023-01-08T01:56:32.335Z,3.10
2023-01-08T01:58:59.324Z,3.25
2023-01-08T02:01:27.128Z,3.13
2023-01-08T02:03:53.796Z,3.53
2023-01-08T02:06:35.334Z,3.50
2023-01-08T02:09:06.129Z,3.42
2023-01-08T02:11:44.473Z,3.53
2023-01-08T02:14:17.190Z,3.20
2023-01-08T02:16:52.488Z,3.50
2023-01-08T02:19:32.881Z,3.90
2023-01-08T02:22:11.699Z,3.75
2023-01-08T02:24:56.044Z,3.33
2023-01-08T02:27:27.858Z,3.80
2023-01-08T02:29:55.873Z,3.30
2023-01-08T02:32:25.432Z,3.40
2023-01-08T02:34:51.968Z,3.13
2023-01-08T02:37:18.759Z,3.47
2023-01-08T02:40:03.626Z,3.13
2023-01-08T02:42:40.430Z,3.30
2023-01-08T02:45:19.076Z,3.50
2023-01-08T02:47:49.928Z,3.50
2023-01-08T02:50:24.399Z,3.38
2023-01-08T02:52:58.473Z,3.13
2023-01-08T02:55:26.785Z,3.50
2023-01-08T02:57:55.613Z,3.55
2023-01-08T03:00:23.057Z,3.20
2023-01-08T03:02:52.433Z,3.60
2023-01-08T03:05:25.555Z,3.43
2023-01-08T03:07:52.810Z,3.10
2023-01-08T03:10:22.547Z,3.10
2023-01-08T03:12:56.420Z,3.40
2023-01-08T03:15:30.247Z,3.50
2023-01-08T03:18:02.036Z,3.30
2023-01-08T03:20:30.094Z,3.47
2023-01-08T03:23:01.226Z,3.50
2023-01-08T03:25:30.182Z,3.63
2023-01-08T03:28:03.798Z,3.70
2023-01-08T03:30:31.340Z,4.23
2023-01-08T03:33:02.521Z,3.85
2023-01-08T03:35:30.828Z,3.60
2023-01-08T03:38:03.115Z,3.45
2023-01-08T03:40:34.800Z,3.42
2023-01-08T03:43:02.921Z,3.27
2023-01-08T03:45:31.532Z,3.50
2023-01-08T03:47:59.737Z,3.80
2023-01-08T03:50:30.214Z,3.88
2023-01-08T03:52:58.183Z,4.28
2023-01-08T03:55:26.335Z,3.60
2023-01-08T03:57:53.056Z,3.45
2023-01-08T04:00:21.025Z,3.42
2023-01-08T04:02:47.809Z,3.80
2023-01-08T04:05:14.418Z,3.78
2023-01-08T04:07:40.954Z,3.60
2023-01-08T04:10:08.031Z,4.13
2023-01-08T04:12:34.589Z,3.97
2023-01-08T04:15:01.160Z,3.80
2023-01-08T04:17:29.039Z,3.58
2023-01-08T04:19:55.661Z,3.70
2023-01-08T04:22:22.242Z,4.00
2023-01-08T04:24:48.914Z,4.03
2023-01-08T04:27:15.543Z,3.67
2023-01-08T04:29:42.149Z,3.55
2023-01-08T04:32:08.778Z,3.43
2023-01-08T04:34:36.852Z,3.83
2023-01-08T04:37:03.456Z,4.22
2023-01-08T04:39:30.058Z,3.85
2023-01-08T04:41:56.584Z,3.50
2023-01-08T04:44:23.310Z,3.87
2023-01-08T04:46:49.804Z,3.85
2023-01-08T04:49:16.533Z,3.65
2023-01-08T04:51:44.420Z,3.90
2023-01-08T04:54:11.049Z,3.97
2023-01-08T04:56:37.648Z,3.67
2023-01-08T04:59:04.183Z,3.60
2023-01-08T05:01:31.193Z,3.70
2023-01-08T05:03:59.995Z,3.70
2023-01-08T05:06:28.204Z,4.00
2023-01-08T05:08:56.532Z,3.50
2023-01-08T05:11:23.657Z,3.78
2023-01-08T05:13:51.247Z,3.60
2023-01-08T05:16:18.008Z,3.25
2023-01-08T05:18:44.886Z,3.28
2023-01-08T05:21:11.865Z,3.03
2023-01-08T05:23:38.501Z,3.40
2023-01-08T05:26:07.493Z,3.28
2023-01-08T05:28:34.471Z,2.40
2023-01-08T05:31:01.100Z,3.17
2023-01-08T05:33:27.898Z,2.87
2023-01-08T05:35:54.579Z,2.63
2023-01-08T05:38:21.212Z,2.58
2023-01-08T05:40:47.894Z,3.20
2023-01-08T05:43:15.781Z,2.53
2023-01-08T05:45:42.519Z,2.40
2023-01-08T05:48:09.076Z,2.42
2023-01-08T05:50:35.973Z,2.50
2023-01-08T05:53:06.097Z,2.40
2023-01-08T05:55:32.824Z,2.40
2023-01-08T05:58:00.894Z,2.20
2023-01-08T06:00:28.844Z,2.22
2023-01-08T06:02:55.427Z,2.30
2023-01-08T06:05:22.155Z,2.22
2023-01-08T06:07:48.669Z,2.20
2023-01-08T06:10:15.395Z,2.20
2023-01-08T06:12:41.973Z,2.00
2023-01-08T06:15:11.020Z,1.90
2023-01-08T06:17:38.947Z,2.00
2023-01-08T06:20:06.408Z,2.15
2023-01-08T06:22:33.690Z,2.10
2023-01-08T06:25:00.285Z,2.17
2023-01-08T06:27:26.881Z,2.45
2023-01-08T06:29:53.431Z,2.22
2023-01-08T06:32:20.022Z,2.03
2023-01-08T06:34:48.128Z,1.90
2023-01-08T06:37:15.375Z,1.75
2023-01-08T06:39:41.905Z,1.63
2023-01-08T06:42:08.467Z,1.85
2023-01-08T06:44:35.003Z,1.90
2023-01-08T06:47:01.608Z,1.53
2023-01-08T06:49:28.197Z,1.77
2023-01-08T06:51:56.099Z,1.90
2023-01-08T06:54:22.673Z,1.65
2023-01-08T06:56:54.007Z,1.90
2023-01-08T06:59:21.277Z,1.77
2023-01-08T07:01:48.179Z,1.85
2023-01-08T07:04:15.031Z,1.90
2023-01-08T07:06:41.544Z,1.92
2023-01-08T07:09:11.776Z,1.83
2023-01-08T07:11:38.286Z,2.20
2023-01-08T07:14:04.783Z,1.67
2023-01-08T07:16:31.480Z,2.03
2023-01-08T07:18:58.444Z,2.00
2023-01-08T07:21:25.209Z,1.90
2023-01-08T07:23:51.908Z,1.67
2023-01-08T07:26:19.854Z,1.90
2023-01-08T07:28:46.583Z,2.28
2023-01-08T07:31:13.149Z,2.00
2023-01-08T07:33:39.894Z,2.30
2023-01-08T07:36:07.399Z,2.53
2023-01-08T07:38:34.103Z,2.20
2023-01-08T07:41:00.650Z,2.30
2023-01-08T07:43:28.540Z,2.00
2023-01-08T07:45:55.209Z,2.15
2023-01-08T07:48:22.218Z,1.83
2023-01-08T07:50:48.745Z,2.08
2023-01-08T07:53:15.239Z,2.00
2023-01-08T07:55:41.947Z,2.05
2023-01-08T07:58:09.368Z,2.08
2023-01-08T08:00:37.508Z,1.90
2023-01-08T08:03:05.258Z,1.77
2023-01-08T08:05:32.650Z,1.95
2023-01-08T08:07:59.225Z,1.67
2023-01-08T08:10:25.817Z,2.00
2023-01-08T08:12:52.352Z,1.83
2023-01-08T08:15:18.906Z,1.70
2023-01-08T08:17:49.072Z,2.13
2023-01-08T08:20:16.253Z,1.75
2023-01-08T08:22:43.018Z,2.10
2023-01-08T08:25:09.826Z,2.03
2023-01-08T08:27:36.363Z,2.03
2023-01-08T08:30:03.621Z,2.00
2023-01-08T08:32:30.234Z,2.17
2023-01-08T08:34:58.200Z,2.30
2023-01-08T08:37:24.862Z,2.30
2023-01-08T08:39:52.297Z,2.10
2023-01-08T08:42:18.898Z,2.08
2023-01-08T08:44:45.501Z,2.22
2023-01-08T08:47:12.463Z,2.42
2023-01-08T08:49:39.070Z,2.23
2023-01-08T08:52:07.208Z,2.53
2023-01-08T08:54:33.781Z,2.72
2023-01-08T08:57:00.306Z,2.38
2023-01-08T08:59:26.873Z,3.00
2023-01-08T09:01:53.549Z,2.23
2023-01-08T09:04:20.135Z,2.63
2023-01-08T09:06:46.697Z,2.60
2023-01-08T09:09:14.798Z,2.60
2023-01-08T09:11:41.469Z,2.60
2023-01-08T09:14:08.051Z,2.70
2023-01-08T09:16:34.717Z,2.38
2023-01-08T09:19:01.262Z,2.40
2023-01-08T09:21:27.998Z,2.03
2023-01-08T09:23:54.513Z,2.83
2023-01-08T09:26:22.565Z,2.43
2023-01-08T09:28:49.358Z,2.38
2023-01-08T09:31:15.950Z,2.50
2023-01-08T09:33:42.663Z,2.70
2023-01-08T09:36:10.293Z,2.47
2023-01-08T09:38:36.821Z,2.70
2023-01-08T09:41:08.364Z,3.90
2023-01-08T09:43:39.495Z,3.83
2023-01-08T09:46:08.182Z,2.75
2023-01-08T09:48:37.382Z,2.60
2023-01-08T09:51:04.514Z,3.10
2023-01-08T09:53:32.953Z,2.40
2023-01-08T09:56:09.720Z,4.05
2023-01-08T09:58:41.514Z,2.50
2023-01-08T10:01:13.314Z,2.70
2023-01-08T10:03:42.735Z,3.20
2023-01-08T10:06:10.656Z,2.25
2023-01-08T10:08:37.584Z,2.72
2023-01-08T10:11:05.263Z,2.13
2023-01-08T10:13:32.317Z,2.45
2023-01-08T10:16:00.394Z,2.23
2023-01-08T10:18:28.707Z,2.47
2023-01-08T10:20:55.315Z,2.22
2023-01-08T10:23:21.979Z,1.83
2023-01-08T10:25:54.483Z,2.65
2023-01-08T10:28:23.649Z,2.17
2023-01-08T10:30:51.540Z,1.40
2023-01-08T10:33:23.258Z,2.00
2023-01-08T10:35:57.211Z,1.80
2023-01-08T10:38:26.642Z,2.67
2023-01-08T10:40:53.398Z,3.43
2023-01-08T10:43:24.408Z,2.10
2023-01-08T10:45:57.160Z,1.90
2023-01-08T10:48:30.922Z,2.30
2023-01-08T10:51:06.961Z,1.92
2023-01-08T10:53:33.617Z,2.20
2023-01-08T10:56:02.159Z,2.45
2023-01-08T10:58:29.471Z,3.17
2023-01-08T11:01:08.479Z,1.90
2023-01-08T11:03:36.675Z,3.20
2023-01-08T11:06:10.884Z,2.10
2023-01-08T11:08:37.629Z,2.25
2023-01-08T11:11:06.178Z,3.63
2023-01-08T11:13:32.728Z,3.47
2023-01-08T11:16:03.012Z,3.50
2023-01-08T11:18:30.580Z,2.87
2023-01-08T11:21:08.963Z,2.88
2023-01-08T11:23:35.607Z,3.05
2023-01-08T11:26:08.152Z,2.95
2023-01-08T11:28:47.215Z,1.70
2023-01-08T11:31:17.675Z,1.90
2023-01-08T11:33:47.311Z,2.55
2023-01-08T11:36:23.746Z,3.22
2023-01-08T11:38:50.372Z,1.70
2023-01-08T11:41:49.883Z,1.83
2023-01-08T11:44:28.385Z,1.87
2023-01-08T11:47:07.091Z,2.00
2023-01-08T11:50:05.063Z,1.85
2023-01-08T11:52:44.835Z,1.67
2023-01-08T11:55:24.341Z,2.05
2023-01-08T11:58:08.104Z,1.93
2023-01-08T12:00:55.598Z,1.65
2023-01-08T12:03:30.688Z,1.83
2023-01-08T12:06:09.168Z,1.67
2023-01-08T12:08:44.372Z,2.20
2023-01-08T12:11:19.956Z,1.70
2023-01-08T12:13:59.286Z,1.50
2023-01-08T12:16:40.775Z,1.80
2023-01-08T12:19:20.131Z,1.55
2023-01-08T12:22:01.968Z,1.40
2023-01-08T12:24:48.787Z,1.70
2023-01-08T12:27:54.712Z,1.63
2023-01-08T12:30:24.141Z,1.50
2023-01-08T12:32:54.760Z,1.33
2023-01-08T12:35:25.900Z,2.15
2023-01-08T12:37:56.857Z,1.47
2023-01-08T12:40:29.334Z,1.30
2023-01-08T12:43:01.420Z,2.38
2023-01-08T12:45:32.287Z,1.23
2023-01-08T12:48:04.164Z,1.40
2023-01-08T12:50:50.062Z,1.70
2023-01-08T12:53:24.166Z,1.70
2023-01-08T12:56:02.727Z,1.40
2023-01-08T12:58:39.035Z,1.15
2023-01-08T13:01:24.689Z,1.50
2023-01-08T13:03:53.283Z,1.30
2023-01-08T13:06:22.004Z,1.23
2023-01-08T13:08:50.738Z,1.50
2023-01-08T13:11:27.922Z,1.10
2023-01-08T13:14:06.006Z,1.20
2023-01-08T13:16:37.124Z,1.13
2023-01-08T13:19:04.916Z,1.20
2023-01-08T13:21:34.262Z,1.40
2023-01-08T13:24:03.597Z,1.38
2023-01-08T13:26:33.540Z,1.40
2023-01-08T13:29:36.485Z,1.30
2023-01-08T13:32:03.115Z,1.50
2023-01-08T13:34:39.083Z,1.40
2023-01-08T13:37:11.478Z,1.60
2023-01-08T13:39:43.281Z,1.60
2023-01-08T13:42:26.917Z,1.50
2023-01-08T13:44:59.201Z,1.30
2023-01-08T13:47:31.461Z,1.42
2023-01-08T13:49:59.711Z,1.40
2023-01-08T13:52:43.763Z,1.83
2023-01-08T13:55:16.802Z,1.40
2023-01-08T13:57:48.363Z,1.60
2023-01-08T14:00:22.570Z,1.50
2023-01-08T14:02:49.178Z,2.88
2023-01-08T14:05:22.696Z,1.60
2023-01-08T14:07:49.737Z,1.97
2023-01-08T14:10:17.863Z,2.45
2023-01-08T14:12:46.367Z,2.13
2023-01-08T14:15:21.793Z,1.65
2023-01-08T14:17:48.820Z,2.70
2023-01-08T14:20:24.807Z,3.30
2023-01-08T14:22:51.462Z,3.58
2023-01-08T14:25:20.022Z,2.30
2023-01-08T14:28:00.658Z,5.03
2023-01-08T14:30:27.808Z,3.47
2023-01-08T14:32:55.704Z,2.00
2023-01-08T14:35:30.496Z,2.05
2023-01-08T14:37:57.325Z,1.80
2023-01-08T14:40:29.928Z,2.15
2023-01-08T14:43:01.717Z,3.70
2023-01-08T14:45:30.480Z,1.23
2023-01-08T14:48:00.420Z,1.60
2023-01-08T14:50:28.817Z,1.95
2023-01-08T14:52:59.043Z,1.70
2023-01-08T14:55:27.263Z,4.22
2023-01-08T14:57:56.240Z,3.60
2023-01-08T15:00:26.957Z,2.08
2023-01-08T15:02:53.993Z,2.17
2023-01-08T15:05:26.325Z,2.33
2023-01-08T15:08:01.838Z,1.50
2023-01-08T15:10:38.304Z,1.60
2023-01-08T15:13:05.344Z,1.70
2023-01-08T15:15:34.865Z,2.25
2023-01-08T15:18:01.616Z,1.85
2023-01-08T15:20:31.175Z,2.25
2023-01-08T15:22:58.390Z,1.50
2023-01-08T15:25:27.083Z,1.50
2023-01-08T15:27:58.315Z,3.00
2023-01-08T15:30:29.393Z,2.13
2023-01-08T15:33:06.394Z,2.40
2023-01-08T15:35:33.577Z,1.63
2023-01-08T15:38:00.138Z,1.50
2023-01-08T15:40:26.735Z,2.20
2023-01-08T15:42:53.344Z,1.45
2023-01-08T15:45:21.816Z,1.75
2023-01-08T15:47:48.660Z,2.10
2023-01-08T15:50:16.728Z,1.50
2023-01-08T15:52:43.667Z,1.50
2023-01-08T15:55:16.244Z,1.77
2023-01-08T15:57:43.008Z,2.00
2023-01-08T16:00:11.704Z,1.63
2023-01-08T16:02:41.737Z,2.08
2023-01-08T16:05:09.445Z,2.03
2023-01-08T16:07:37.792Z,1.50
2023-01-08T16:10:05.126Z,1.77
2023-01-08T16:12:31.662Z,1.53
2023-01-08T16:14:58.181Z,2.13
2023-01-08T16:17:24.731Z,5.57
2023-01-08T16:19:51.267Z,3.28
2023-01-08T16:22:17.909Z,1.92
2023-01-08T16:24:45.842Z,1.27
2023-01-08T16:27:12.427Z,1.70
2023-01-08T16:29:39.017Z,1.90
2023-01-08T16:32:05.837Z,1.48
2023-01-08T16:34:32.584Z,1.90
2023-01-08T16:36:59.151Z,2.43
2023-01-08T16:39:25.739Z,2.50
2023-01-08T16:41:53.740Z,1.98
2023-01-08T16:44:21.899Z,1.92
2023-01-08T16:46:49.062Z,1.67
2023-01-08T16:49:16.315Z,2.43
2023-01-08T16:51:42.982Z,2.00
2023-01-08T16:54:11.807Z,1.77
2023-01-08T16:56:38.498Z,2.78
2023-01-08T16:59:14.977Z,2.03
2023-01-08T17:01:48.825Z,2.20
2023-01-08T17:04:15.451Z,1.98
2023-01-08T17:06:41.971Z,1.85
2023-01-08T17:09:11.354Z,1.98
2023-01-08T17:11:38.242Z,1.70
2023-01-08T17:14:06.184Z,1.90
2023-01-08T17:16:33.050Z,1.70
2023-01-08T17:18:59.634Z,2.38
2023-01-08T17:21:26.444Z,1.90
2023-01-08T17:23:52.940Z,2.58
2023-01-08T17:26:19.466Z,1.80
2023-01-08T17:28:46.535Z,1.60
2023-01-08T17:31:16.389Z,2.08
2023-01-08T17:33:43.176Z,2.00
2023-01-08T17:36:11.402Z,2.20
2023-01-08T17:38:38.124Z,1.60
2023-01-08T17:41:05.062Z,1.80
2023-01-08T17:43:33.950Z,1.80
2023-01-08T17:46:02.083Z,1.70
2023-01-08T17:48:30.048Z,2.15
2023-01-08T17:50:56.691Z,1.73
2023-01-08T17:53:23.260Z,3.83
2023-01-08T17:55:49.773Z,1.70
2023-01-08T17:58:16.388Z,1.83
2023-01-08T18:00:43.072Z,1.73
2023-01-08T18:03:09.651Z,1.93
2023-01-08T18:05:37.673Z,1.75
2023-01-08T18:08:04.736Z,1.80
2023-01-08T18:10:31.278Z,1.58
2023-01-08T18:12:57.819Z,1.45
2023-01-08T18:15:24.375Z,1.33
2023-01-08T18:17:50.969Z,1.70
2023-01-08T18:20:17.648Z,1.65
2023-01-08T18:22:45.534Z,1.67
2023-01-08T18:25:12.338Z,2.55
2023-01-08T18:27:38.908Z,2.03
2023-01-08T18:30:06.819Z,1.60
2023-01-08T18:32:34.468Z,2.17
2023-01-08T18:35:01.051Z,1.90
2023-01-08T18:37:27.625Z,1.80
2023-01-08T18:39:55.559Z,1.70
2023-01-08T18:42:22.121Z,1.80
2023-01-08T18:44:49.706Z,2.10
2023-01-08T18:47:16.281Z,1.50
2023-01-08T18:49:42.775Z,3.17
2023-01-08T18:52:09.291Z,1.77
2023-01-08T18:54:35.786Z,3.15
2023-01-08T18:57:03.868Z,2.80
2023-01-08T18:59:30.464Z,2.63
2023-01-08T19:01:57.090Z,2.30
2023-01-08T19:04:23.679Z,2.23
2023-01-08T19:06:50.234Z,3.08
2023-01-08T19:09:16.915Z,2.60
2023-01-08T19:11:43.643Z,1.90
2023-01-08T19:14:13.156Z,2.60
2023-01-08T19:16:40.420Z,1.70
2023-01-08T19:19:06.950Z,1.67
2023-01-08T19:21:33.474Z,1.83
2023-01-08T19:24:00.007Z,2.78
2023-01-08T19:26:26.596Z,2.47
2023-01-08T19:28:53.122Z,2.50
2023-01-08T19:31:21.140Z,2.47
2023-01-08T19:33:47.683Z,3.42
2023-01-08T19:36:14.407Z,6.30
2023-01-08T19:38:41.724Z,3.15
2023-01-08T19:41:08.662Z,2.97
2023-01-08T19:43:35.213Z,6.38
2023-01-08T19:46:05.495Z,5.15
2023-01-08T19:48:33.586Z,4.68
2023-01-08T19:51:05.266Z,4.63
2023-01-08T19:53:31.996Z,3.20
2023-01-08T19:56:02.930Z,2.80
2023-01-08T19:58:29.627Z,2.40
2023-01-08T20:00:56.228Z,2.20
2023-01-08T20:03:22.926Z,1.90
2023-01-08T20:05:50.871Z,2.40
2023-01-08T20:08:17.477Z,2.40
2023-01-08T20:10:44.031Z,2.58
2023-01-08T20:13:10.791Z,2.92
2023-01-08T20:15:37.365Z,3.00
2023-01-08T20:18:04.388Z,3.43
2023-01-08T20:20:31.333Z,4.40
2023-01-08T20:22:59.221Z,3.40
2023-01-08T20:25:25.832Z,2.97
2023-01-08T20:27:52.571Z,2.80
2023-01-08T20:30:19.126Z,2.70
2023-01-08T20:32:45.659Z,2.28
2023-01-08T20:35:12.223Z,2.38
2023-01-08T20:37:38.996Z,2.72
2023-01-08T20:40:08.739Z,4.78
2023-01-08T20:42:35.291Z,3.07
2023-01-08T20:45:02.009Z,2.30
2023-01-08T20:47:28.581Z,2.75
2023-01-08T20:49:55.149Z,2.15
2023-01-08T20:52:21.748Z,3.20
2023-01-08T20:54:48.301Z,3.20
2023-01-08T20:57:16.297Z,3.30
2023-01-08T20:59:43.018Z,2.85
2023-01-08T21:02:10.685Z,2.40
2023-01-08T21:04:37.529Z,8.82
2023-01-08T21:07:04.099Z,7.87
2023-01-08T21:09:31.285Z,3.10
2023-01-08T21:11:57.949Z,3.00
2023-01-08T21:14:26.145Z,2.10
2023-01-08T21:16:53.011Z,2.90
2023-01-08T21:19:20.140Z,1.63
2023-01-08T21:21:47.088Z,2.22
2023-01-08T21:24:14.836Z,1.95
2023-01-08T21:26:41.851Z,1.10
2023-01-08T21:29:09.944Z,2.55
2023-01-08T21:31:38.542Z,1.50
2023-01-08T21:34:07.197Z,1.50
2023-01-08T21:36:33.800Z,2.63
2023-01-08T21:39:01.558Z,1.25
2023-01-08T21:41:29.787Z,1.33
2023-01-08T21:43:56.362Z,1.07
2023-01-08T21:46:25.258Z,1.40
2023-01-08T21:48:53.140Z,1.95
2023-01-08T21:51:19.783Z,1.80
2023-01-08T21:53:46.389Z,1.60
2023-01-08T21:56:12.909Z,1.20
2023-01-08T21:58:39.657Z,1.20
2023-01-08T22:01:09.208Z,1.20
2023-01-08T22:03:35.906Z,1.23
2023-01-08T22:06:06.188Z,1.30
2023-01-08T22:08:33.348Z,1.10
2023-01-08T22:11:00.402Z,1.25
2023-01-08T22:13:27.332Z,1.17
2023-01-08T22:16:01.388Z,1.23
2023-01-08T22:18:27.910Z,1.20
2023-01-08T22:20:59.738Z,1.10
2023-01-08T22:23:27.946Z,1.30
2023-01-08T22:25:54.450Z,1.50
2023-01-08T22:28:20.984Z,1.50
2023-01-08T22:30:47.501Z,1.35
2023-01-08T22:33:14.186Z,1.20
2023-01-08T22:35:40.733Z,1.30
2023-01-08T22:38:07.301Z,1.70
2023-01-08T22:40:37.341Z,1.30
2023-01-08T22:43:03.864Z,1.40
2023-01-08T22:45:30.636Z,1.37
2023-01-08T22:47:59.183Z,1.35
2023-01-08T22:50:25.939Z,1.40
2023-01-08T22:52:52.504Z,1.40
2023-01-08T22:55:19.235Z,1.60
2023-01-08T22:57:47.105Z,1.33
2023-01-08T23:00:14.817Z,1.50
2023-01-08T23:02:41.385Z,1.50
2023-01-08T23:05:08.246Z,1.42
2023-01-08T23:07:34.989Z,2.10
2023-01-08T23:10:01.551Z,2.30
2023-01-08T23:12:28.084Z,2.55
2023-01-08T23:14:55.960Z,2.28
2023-01-08T23:17:22.523Z,2.40
2023-01-08T23:19:49.094Z,2.00
2023-01-08T23:22:15.592Z,2.00
2023-01-08T23:24:42.754Z,1.77
2023-01-08T23:27:09.289Z,1.60
2023-01-08T23:29:35.849Z,1.60
2023-01-08T23:32:04.140Z,1.70
2023-01-08T23:34:30.745Z,1.50
2023-01-08T23:36:57.350Z,1.60
2023-01-08T23:39:23.940Z,1.80
2023-01-08T23:41:50.456Z,1.63
2023-01-08T23:44:16.977Z,1.67
2023-01-08T23:46:43.579Z,1.60
2023-01-08T23:49:11.575Z,1.60
2023-01-08T23:51:38.257Z,1.80
2023-01-08T23:54:04.943Z,1.70
2023-01-08T23:56:31.506Z,1.67
2023-01-08T23:58:58.104Z,1.70
